LRTC

Tulcea Airport

Tulcea, Romania
TAF LRTC 210800Z 2109/2118 32007KT CAVOK BECMG 2113/2115 25010KT
Issued Valid From Valid To
Apr-21 @ 08:00 UTC
(2 hours ago)
Apr-21 @ 09:00 UTC
(53 minutes ago)
Apr-21 @ 18:00 UTC
(in 8 hours)
Apr-21 @ 09:00 to Apr-21 @ 13:00
TAF LRTC 210800Z 2109/2118 32007KT CAVOK
Wind Visibility Clouds Conditions
320° at 7 knots 10,000+ meters
  • No significant clouds
Becoming Apr-21 @ 13:00 to Apr-21 @ 18:00
BECMG 2113/2115 25010KT
Wind Visibility Clouds Conditions
250° at 10 knots 10,000+ meters
  • No significant clouds
TAF LRTC 210800Z 2109/2118 32007KT CAVOK BECMG 2113/2115 25010KT
Issued Apr-21 @ 08:00 UTC
(2 hours ago)
Valid From Apr-21 @ 09:00 UTC
(53 minutes ago)
Valid To Apr-21 @ 18:00 UTC
(in 8 hours)
Apr-21 @ 09:00 - Apr-21 @ 13:00
Wind Visibility
320° at 7 knots 10,000+ meters
Clouds
  • No significant clouds
Conditions
Becoming Apr-21 @ 13:00 - Apr-21 @ 18:00
Wind Visibility
250° at 10 knots 10,000+ meters
Clouds
  • No significant clouds
Conditions